createdAt,value
2022-12-26T00:00:57.428Z,15.38
2022-12-26T00:03:24.639Z,16.75
2022-12-26T00:05:51.605Z,13.82
2022-12-26T00:08:18.735Z,14.05
2022-12-26T00:10:45.583Z,13.68
2022-12-26T00:13:39.837Z,15.45
2022-12-26T00:15:59.553Z,14.10
2022-12-26T00:18:26.514Z,13.98
2022-12-26T00:20:53.801Z,15.00
2022-12-26T00:23:20.689Z,14.82
2022-12-26T00:25:47.616Z,13.48
2022-12-26T00:28:14.630Z,12.80
2022-12-26T00:30:41.540Z,15.65
2022-12-26T00:33:08.379Z,12.30
2022-12-26T00:35:35.280Z,12.95
2022-12-26T00:38:02.252Z,13.00
2022-12-26T00:40:29.665Z,13.07
2022-12-26T00:42:56.572Z,13.65
2022-12-26T00:45:23.520Z,12.85
2022-12-26T00:47:50.434Z,13.52
2022-12-26T00:50:17.774Z,14.02
2022-12-26T00:52:44.617Z,14.63
2022-12-26T00:55:11.492Z,15.30
2022-12-26T00:57:38.390Z,14.70
2022-12-26T01:00:05.933Z,14.00
2022-12-26T01:02:38.736Z,13.55
2022-12-26T01:05:09.425Z,12.40
2022-12-26T01:08:21.561Z,13.00
2022-12-26T01:10:24.733Z,12.80
2022-12-26T01:12:52.091Z,12.85
2022-12-26T01:15:19.619Z,15.90
2022-12-26T01:17:47.296Z,15.68
2022-12-26T01:20:14.342Z,16.42
2022-12-26T01:22:41.362Z,17.83
2022-12-26T01:25:08.931Z,17.20
2022-12-26T01:27:35.829Z,17.05
2022-12-26T01:30:02.940Z,17.45
2022-12-26T01:32:29.829Z,18.08
2022-12-26T01:34:56.895Z,18.35
2022-12-26T01:37:24.058Z,17.90
2022-12-26T01:39:52.398Z,20.38
2022-12-26T01:42:22.093Z,19.98
2022-12-26T01:45:07.168Z,19.67
2022-12-26T01:47:51.782Z,19.35
2022-12-26T01:50:27.789Z,18.42
2022-12-26T01:52:58.646Z,17.98
2022-12-26T01:55:27.016Z,18.48
2022-12-26T01:58:05.517Z,17.52
2022-12-26T02:00:33.571Z,17.30
2022-12-26T02:03:19.236Z,16.70
2022-12-26T02:05:46.416Z,18.20
2022-12-26T02:08:17.417Z,17.60
2022-12-26T02:10:55.807Z,19.40
2022-12-26T02:13:24.004Z,17.98
2022-12-26T02:15:50.947Z,18.48
2022-12-26T02:18:17.974Z,19.75
2022-12-26T02:21:10.014Z,18.92
2022-12-26T02:23:55.360Z,18.77
2022-12-26T02:26:40.093Z,18.95
2022-12-26T02:29:12.924Z,18.77
2022-12-26T02:32:05.840Z,19.02
2022-12-26T02:34:56.813Z,16.35
2022-12-26T02:37:35.694Z,15.80
2022-12-26T02:40:17.828Z,15.68
2022-12-26T02:42:47.879Z,16.52
2022-12-26T02:45:36.418Z,15.05
2022-12-26T02:48:13.632Z,14.15
2022-12-26T02:51:39.570Z,13.27
2022-12-26T02:54:38.062Z,13.63
2022-12-26T02:57:27.425Z,17.15
2022-12-26T03:00:36.120Z,19.63
2022-12-26T03:03:28.166Z,22.45
2022-12-26T03:06:19.544Z,19.88
2022-12-26T03:09:06.849Z,20.73
2022-12-26T03:11:58.211Z,20.58
2022-12-26T03:14:57.357Z,20.73
2022-12-26T03:17:32.628Z,22.35
2022-12-26T03:20:11.325Z,20.25
2022-12-26T03:22:49.234Z,20.65
2022-12-26T03:25:55.694Z,20.10
2022-12-26T03:28:23.473Z,13.80
2022-12-26T03:30:52.088Z,9.38
2022-12-26T03:33:45.933Z,8.88
2022-12-26T03:36:41.699Z,13.15
2022-12-26T03:39:47.028Z,17.05
2022-12-26T03:43:15.579Z,18.67
2022-12-26T03:46:22.890Z,18.52
2022-12-26T03:49:29.694Z,19.27
2022-12-26T03:52:28.749Z,20.60
2022-12-26T03:55:40.294Z,18.40
2022-12-26T03:59:09.030Z,18.48
2022-12-26T04:01:58.389Z,19.45
2022-12-26T04:04:48.040Z,19.33
2022-12-26T04:07:56.002Z,16.52
2022-12-26T04:10:50.007Z,14.20
2022-12-26T04:13:40.620Z,14.82
2022-12-26T04:16:36.640Z,13.68
2022-12-26T04:19:35.400Z,12.05
2022-12-26T04:22:29.652Z,12.55
2022-12-26T04:25:50.251Z,15.13
2022-12-26T04:28:38.545Z,18.10
2022-12-26T04:31:41.266Z,17.88
2022-12-26T04:34:34.204Z,18.00
2022-12-26T04:37:23.372Z,22.90
2022-12-26T04:40:13.090Z,23.63
2022-12-26T04:43:02.346Z,24.98
2022-12-26T04:45:49.801Z,28.15
2022-12-26T04:48:36.344Z,29.88
2022-12-26T04:53:29.985Z,27.25
2022-12-26T04:55:56.980Z,30.02
2022-12-26T04:58:24.481Z,28.38
2022-12-26T05:00:51.408Z,30.15
2022-12-26T05:03:36.800Z,29.95
2022-12-26T05:06:22.059Z,32.50
2022-12-26T05:09:07.665Z,29.90
2022-12-26T05:11:35.566Z,29.27
2022-12-26T05:14:02.735Z,29.63
2022-12-26T05:16:48.249Z,30.85
2022-12-26T05:19:35.792Z,28.35
2022-12-26T05:22:23.280Z,30.70
2022-12-26T05:25:08.967Z,36.25
2022-12-26T05:27:56.911Z,39.97
2022-12-26T05:30:24.889Z,36.75
2022-12-26T05:33:10.239Z,35.92
2022-12-26T05:35:37.899Z,35.70
2022-12-26T05:38:05.134Z,36.88
2022-12-26T05:40:32.371Z,38.53
2022-12-26T05:42:59.310Z,37.10
2022-12-26T05:45:26.371Z,36.05
2022-12-26T05:48:00.954Z,33.17
2022-12-26T05:50:28.870Z,31.90
2022-12-26T05:52:59.692Z,31.90
2022-12-26T05:55:26.763Z,29.83
2022-12-26T05:57:53.808Z,26.40
2022-12-26T06:00:21.378Z,25.55
2022-12-26T06:02:48.889Z,20.98
2022-12-26T06:05:16.149Z,23.33
2022-12-26T06:07:43.081Z,21.65
2022-12-26T06:10:10.581Z,19.25
2022-12-26T06:12:37.517Z,19.88
2022-12-26T06:15:04.814Z,17.40
2022-12-26T06:17:32.030Z,15.45
2022-12-26T06:19:58.952Z,15.48
2022-12-26T06:22:25.966Z,14.40
2022-12-26T06:24:52.866Z,15.57
2022-12-26T06:27:19.720Z,12.70
2022-12-26T06:29:46.650Z,12.35
2022-12-26T06:32:13.588Z,12.07
2022-12-26T06:34:40.614Z,12.27
2022-12-26T06:37:07.648Z,11.85
2022-12-26T06:39:34.699Z,12.32
2022-12-26T06:42:01.649Z,12.10
2022-12-26T06:44:28.535Z,13.32
2022-12-26T06:46:55.393Z,14.00
2022-12-26T06:49:26.207Z,14.77
2022-12-26T06:51:55.664Z,14.20
2022-12-26T06:54:22.690Z,14.20
2022-12-26T06:56:49.555Z,13.23
2022-12-26T06:59:16.432Z,13.95
2022-12-26T07:01:43.423Z,12.88
2022-12-26T07:04:13.331Z,11.95
2022-12-26T07:06:40.329Z,11.13
2022-12-26T07:09:11.033Z,9.05
2022-12-26T07:11:40.509Z,8.60
2022-12-26T07:14:08.261Z,9.75
2022-12-26T07:16:36.433Z,10.05
2022-12-26T07:19:04.533Z,9.30
2022-12-26T07:21:37.988Z,9.35
2022-12-26T07:24:09.054Z,9.30
2022-12-26T07:26:35.992Z,8.48
2022-12-26T07:29:02.924Z,9.63
2022-12-26T07:31:29.899Z,8.38
2022-12-26T07:33:57.271Z,9.27
2022-12-26T07:36:25.359Z,9.32
2022-12-26T07:38:52.643Z,9.10
2022-12-26T07:41:38.494Z,9.43
2022-12-26T07:44:06.311Z,10.20
2022-12-26T07:46:34.155Z,10.10
2022-12-26T07:49:01.509Z,9.57
2022-12-26T07:51:28.463Z,8.90
2022-12-26T07:53:55.364Z,7.72
2022-12-26T07:56:22.286Z,7.90
2022-12-26T07:58:50.411Z,8.38
2022-12-26T08:01:17.914Z,7.60
2022-12-26T08:03:45.216Z,8.23
2022-12-26T08:06:12.222Z,7.78
2022-12-26T08:08:40.330Z,6.63
2022-12-26T08:11:15.423Z,4.70
2022-12-26T08:13:42.478Z,4.75
2022-12-26T08:16:12.204Z,4.35
2022-12-26T08:18:39.211Z,4.80
2022-12-26T08:21:06.115Z,4.68
2022-12-26T08:23:33.978Z,5.40
2022-12-26T08:26:06.117Z,8.07
2022-12-26T08:28:33.102Z,9.05
2022-12-26T08:31:00.452Z,10.57
2022-12-26T08:33:27.932Z,14.82
2022-12-26T08:35:54.952Z,16.55
2022-12-26T08:38:21.845Z,13.15
2022-12-26T08:40:56.472Z,15.60
2022-12-26T08:44:03.000Z,35.95
2022-12-26T08:46:13.094Z,42.80
2022-12-26T08:48:41.195Z,44.22
2022-12-26T08:51:12.634Z,47.10
2022-12-26T08:53:39.846Z,47.47
2022-12-26T08:56:08.658Z,49.67
2022-12-26T08:58:35.744Z,50.97
2022-12-26T09:01:08.205Z,52.88
2022-12-26T09:03:35.259Z,56.83
2022-12-26T09:06:06.221Z,59.30
2022-12-26T09:08:35.063Z,54.88
2022-12-26T09:11:04.376Z,55.67
2022-12-26T09:13:32.825Z,36.83
2022-12-26T09:16:12.185Z,36.88
2022-12-26T09:18:40.023Z,50.38
2022-12-26T09:21:10.079Z,35.97
2022-12-26T09:23:38.291Z,28.05
2022-12-26T09:26:07.714Z,15.13
2022-12-26T09:28:35.291Z,19.20
2022-12-26T09:31:07.788Z,19.65
2022-12-26T09:33:37.774Z,15.73
2022-12-26T09:36:14.581Z,4.05
2022-12-26T09:38:43.198Z,10.60
2022-12-26T09:41:22.117Z,8.30
2022-12-26T09:43:59.826Z,5.10
2022-12-26T09:46:26.698Z,4.95
2022-12-26T09:49:03.485Z,6.78
2022-12-26T09:51:33.554Z,3.72
2022-12-26T09:54:04.669Z,3.80
2022-12-26T09:57:01.666Z,3.90
2022-12-26T09:59:26.248Z,3.55
2022-12-26T10:01:53.916Z,4.13
2022-12-26T10:04:30.550Z,3.45
2022-12-26T10:07:16.587Z,4.13
2022-12-26T10:10:10.680Z,2.15
2022-12-26T10:13:07.854Z,3.78
2022-12-26T10:15:52.458Z,3.45
2022-12-26T10:18:40.248Z,3.17
2022-12-26T10:21:28.765Z,3.38
2022-12-26T10:24:03.303Z,4.32
2022-12-26T10:26:35.301Z,3.60
2022-12-26T10:29:04.691Z,3.55
2022-12-26T10:31:48.273Z,2.50
2022-12-26T10:34:15.180Z,2.63
2022-12-26T10:36:50.930Z,2.90
2022-12-26T10:39:33.798Z,2.17
2022-12-26T10:42:11.199Z,2.45
2022-12-26T10:44:40.628Z,2.45
2022-12-26T10:47:19.875Z,3.17
2022-12-26T10:49:48.521Z,2.80
2022-12-26T10:52:18.562Z,2.70
2022-12-26T10:54:51.581Z,2.92
2022-12-26T10:57:41.545Z,3.10
2022-12-26T11:00:25.989Z,2.38
2022-12-26T11:03:08.908Z,2.35
2022-12-26T11:06:06.466Z,3.13
2022-12-26T11:08:40.736Z,2.80
2022-12-26T11:11:46.289Z,2.72
2022-12-26T11:14:40.442Z,2.92
2022-12-26T11:17:34.265Z,4.97
2022-12-26T11:20:10.755Z,6.22
2022-12-26T11:22:38.629Z,6.55
2022-12-26T11:25:14.805Z,7.13
2022-12-26T11:27:45.665Z,7.75
2022-12-26T11:30:19.323Z,6.80
2022-12-26T11:33:08.396Z,7.18
2022-12-26T11:35:48.610Z,6.57
2022-12-26T11:38:39.104Z,6.43
2022-12-26T11:41:31.764Z,5.53
2022-12-26T11:44:14.122Z,5.40
2022-12-26T11:46:55.894Z,4.90
2022-12-26T11:49:34.514Z,3.75
2022-12-26T11:52:23.139Z,2.88
2022-12-26T11:54:51.364Z,3.22
2022-12-26T11:57:28.310Z,3.80
2022-12-26T11:59:55.868Z,2.72
2022-12-26T12:02:31.130Z,2.75
2022-12-26T12:05:02.764Z,3.50
2022-12-26T12:07:38.757Z,2.40
2022-12-26T12:10:35.584Z,2.75
2022-12-26T12:13:24.081Z,2.00
2022-12-26T12:16:00.114Z,2.70
2022-12-26T12:18:47.291Z,2.90
2022-12-26T12:22:00.905Z,2.78
2022-12-26T12:24:36.833Z,2.58
2022-12-26T12:27:38.386Z,3.90
2022-12-26T12:30:20.622Z,3.65
2022-12-26T12:33:06.059Z,3.05
2022-12-26T12:35:41.862Z,2.83
2022-12-26T12:38:27.625Z,2.50
2022-12-26T12:41:22.507Z,2.78
2022-12-26T12:43:52.308Z,3.00
2022-12-26T12:46:53.190Z,3.72
2022-12-26T12:49:28.758Z,4.25
2022-12-26T12:52:28.982Z,4.07
2022-12-26T12:55:01.542Z,4.10
2022-12-26T12:57:51.246Z,4.25
2022-12-26T13:00:21.827Z,3.75
2022-12-26T13:03:12.008Z,5.05
2022-12-26T13:05:44.821Z,5.60
2022-12-26T13:08:22.655Z,4.75
2022-12-26T13:10:58.228Z,5.82
2022-12-26T13:13:29.899Z,5.72
2022-12-26T13:16:03.806Z,5.00
2022-12-26T13:18:37.878Z,5.50
2022-12-26T13:21:11.790Z,4.80
2022-12-26T13:24:04.311Z,5.88
2022-12-26T13:26:49.044Z,5.07
2022-12-26T13:29:44.761Z,5.97
2022-12-26T13:32:41.924Z,4.75
2022-12-26T13:35:49.260Z,6.15
2022-12-26T13:38:16.313Z,6.30
2022-12-26T13:40:50.021Z,6.40
2022-12-26T13:43:42.517Z,6.28
2022-12-26T13:46:51.346Z,6.65
2022-12-26T13:49:36.627Z,6.72
2022-12-26T13:52:12.427Z,6.75
2022-12-26T13:54:48.353Z,7.55
2022-12-26T13:57:40.338Z,8.82
2022-12-26T14:00:09.624Z,7.95
2022-12-26T14:03:17.206Z,7.88
2022-12-26T14:06:05.120Z,8.93
2022-12-26T14:08:39.992Z,8.13
2022-12-26T14:11:16.211Z,8.48
2022-12-26T14:14:19.881Z,7.80
2022-12-26T14:16:46.760Z,8.57
2022-12-26T14:19:35.015Z,7.97
2022-12-26T14:22:36.648Z,8.95
2022-12-26T14:25:26.878Z,9.25
2022-12-26T14:28:10.795Z,9.70
2022-12-26T14:30:50.072Z,9.27
2022-12-26T14:33:46.898Z,9.25
2022-12-26T14:36:26.414Z,10.07
2022-12-26T14:39:19.569Z,9.68
2022-12-26T14:42:26.682Z,12.27
2022-12-26T14:44:59.021Z,11.05
2022-12-26T14:47:48.039Z,11.43
2022-12-26T14:50:33.203Z,10.27
2022-12-26T14:53:27.704Z,11.75
2022-12-26T14:56:14.397Z,12.13
2022-12-26T14:58:48.237Z,11.90
2022-12-26T15:01:18.680Z,13.00
2022-12-26T15:04:16.770Z,12.07
2022-12-26T15:06:46.613Z,12.35
2022-12-26T15:09:25.778Z,12.85
2022-12-26T15:12:27.590Z,12.35
2022-12-26T15:15:19.319Z,13.13
2022-12-26T15:18:04.103Z,13.77
2022-12-26T15:21:01.283Z,15.15
2022-12-26T15:23:58.527Z,14.52
2022-12-26T15:26:44.197Z,15.82
2022-12-26T15:29:29.321Z,15.55
2022-12-26T15:32:04.545Z,16.83
2022-12-26T15:34:36.751Z,15.98
2022-12-26T15:37:18.428Z,17.92
2022-12-26T15:40:03.419Z,18.88
2022-12-26T15:42:36.292Z,24.25
2022-12-26T15:45:27.724Z,25.40
2022-12-26T15:48:13.714Z,31.73
2022-12-26T15:51:05.497Z,27.52
2022-12-26T15:53:44.301Z,20.77
2022-12-26T15:56:23.527Z,23.08
2022-12-26T15:59:09.146Z,22.73
2022-12-26T16:01:40.216Z,22.27
2022-12-26T16:04:17.926Z,21.73
2022-12-26T16:07:15.001Z,21.02
2022-12-26T16:09:44.008Z,21.20
2022-12-26T16:12:23.233Z,19.73
2022-12-26T16:14:51.125Z,21.38
2022-12-26T16:17:21.947Z,19.48
2022-12-26T16:19:51.486Z,21.88
2022-12-26T16:22:44.597Z,19.77
2022-12-26T16:25:26.615Z,18.95
2022-12-26T16:27:56.810Z,19.38
2022-12-26T16:30:44.094Z,19.45
2022-12-26T16:33:14.857Z,19.73
2022-12-26T16:35:43.210Z,19.20
2022-12-26T16:38:17.033Z,18.73
2022-12-26T16:40:44.916Z,19.45
2022-12-26T16:43:17.874Z,20.17
2022-12-26T16:45:48.152Z,20.73
2022-12-26T16:48:18.659Z,19.15
2022-12-26T16:50:55.129Z,19.30
2022-12-26T16:53:43.135Z,20.33
2022-12-26T16:56:25.161Z,20.38
2022-12-26T16:59:04.661Z,20.02
2022-12-26T17:01:33.338Z,20.50
2022-12-26T17:04:26.234Z,19.60
2022-12-26T17:07:08.124Z,20.98
2022-12-26T17:09:49.831Z,19.02
2022-12-26T17:12:24.371Z,19.60
2022-12-26T17:14:53.279Z,19.48
2022-12-26T17:17:23.187Z,19.65
2022-12-26T17:19:54.388Z,19.05
2022-12-26T17:22:32.155Z,20.00
2022-12-26T17:25:17.453Z,19.55
2022-12-26T17:27:45.667Z,19.35
2022-12-26T17:30:32.361Z,19.08
2022-12-26T17:33:22.295Z,19.80
2022-12-26T17:36:52.508Z,19.00
2022-12-26T17:38:45.057Z,19.50
2022-12-26T17:41:15.959Z,19.95
2022-12-26T17:43:43.949Z,20.00
2022-12-26T17:46:13.882Z,20.67
2022-12-26T17:48:42.188Z,19.65
2022-12-26T17:51:15.803Z,18.77
2022-12-26T17:53:47.482Z,18.02
2022-12-26T17:56:17.997Z,19.15
2022-12-26T17:58:44.979Z,18.70
2022-12-26T18:01:17.516Z,19.48
2022-12-26T18:03:47.557Z,19.10
2022-12-26T18:06:17.444Z,19.52
2022-12-26T18:08:44.603Z,19.50
2022-12-26T18:11:14.054Z,18.92
2022-12-26T18:13:41.969Z,20.08
2022-12-26T18:16:18.821Z,20.70
2022-12-26T18:18:47.454Z,20.65
2022-12-26T18:21:15.875Z,18.80
2022-12-26T18:23:43.336Z,20.00
2022-12-26T18:26:26.515Z,19.77
2022-12-26T18:28:54.240Z,19.70
2022-12-26T18:31:21.859Z,21.10
2022-12-26T18:33:48.907Z,19.73
2022-12-26T18:36:17.380Z,19.90
2022-12-26T18:38:44.775Z,20.13
2022-12-26T18:41:16.680Z,21.95
2022-12-26T18:43:43.666Z,22.52
2022-12-26T18:46:30.945Z,22.17
2022-12-26T18:48:58.153Z,21.45
2022-12-26T18:51:26.446Z,21.80
2022-12-26T18:53:53.999Z,22.27
2022-12-26T18:56:23.001Z,22.65
2022-12-26T18:58:57.158Z,23.40
2022-12-26T19:01:25.415Z,24.02
2022-12-26T19:03:53.964Z,24.40
2022-12-26T19:06:26.770Z,23.13
2022-12-26T19:08:53.801Z,25.08
2022-12-26T19:11:20.992Z,25.17
2022-12-26T19:13:48.019Z,23.10
2022-12-26T19:16:15.025Z,23.73
2022-12-26T19:18:42.002Z,23.08
2022-12-26T19:21:15.988Z,24.25
2022-12-26T19:23:46.847Z,23.75
2022-12-26T19:26:16.396Z,24.25
2022-12-26T19:28:43.421Z,23.55
2022-12-26T19:31:15.258Z,23.73
2022-12-26T19:33:42.554Z,25.13
2022-12-26T19:36:10.164Z,24.98
2022-12-26T19:38:37.646Z,25.58
2022-12-26T19:41:13.993Z,24.73
2022-12-26T19:43:41.342Z,25.23
2022-12-26T19:46:11.471Z,26.05
2022-12-26T19:48:39.491Z,25.58
2022-12-26T19:51:09.292Z,26.17
2022-12-26T19:53:37.401Z,25.33
2022-12-26T19:56:13.574Z,25.35
2022-12-26T19:58:40.916Z,25.88
2022-12-26T20:01:13.399Z,25.77
2022-12-26T20:03:41.248Z,25.65
2022-12-26T20:06:15.829Z,26.52
2022-12-26T20:08:43.807Z,26.15
2022-12-26T20:11:13.888Z,25.80
2022-12-26T20:13:42.779Z,25.15
2022-12-26T20:16:46.032Z,24.40
2022-12-26T20:19:03.399Z,23.02
2022-12-26T20:21:30.429Z,22.23
2022-12-26T20:23:58.852Z,23.55
2022-12-26T20:26:26.485Z,22.38
2022-12-26T20:28:57.344Z,22.73
2022-12-26T20:31:24.474Z,22.98
2022-12-26T20:33:52.556Z,20.42
2022-12-26T20:36:25.526Z,21.70
2022-12-26T20:38:54.468Z,21.13
2022-12-26T20:41:21.486Z,19.52
2022-12-26T20:43:49.625Z,20.25
2022-12-26T20:46:25.441Z,19.02
2022-12-26T20:48:53.021Z,20.30
2022-12-26T20:51:23.391Z,20.23
2022-12-26T20:53:51.799Z,19.70
2022-12-26T20:56:19.167Z,20.25
2022-12-26T20:58:46.380Z,20.40
2022-12-26T21:01:19.371Z,19.42
2022-12-26T21:03:47.238Z,18.92
2022-12-26T21:06:23.363Z,20.08
2022-12-26T21:08:51.944Z,20.75
2022-12-26T21:11:26.260Z,20.90
2022-12-26T21:14:00.570Z,17.98
2022-12-26T21:16:37.267Z,18.35
2022-12-26T21:19:09.353Z,17.40
2022-12-26T21:21:41.040Z,16.42
2022-12-26T21:24:13.079Z,16.70
2022-12-26T21:26:42.162Z,16.58
2022-12-26T21:29:14.028Z,19.50
2022-12-26T21:31:41.554Z,18.55
2022-12-26T21:34:08.937Z,24.33
2022-12-26T21:36:36.340Z,25.13
2022-12-26T21:39:09.154Z,24.55
2022-12-26T21:41:39.112Z,23.65
2022-12-26T21:44:06.046Z,25.20
2022-12-26T21:46:34.246Z,23.30
2022-12-26T21:49:01.366Z,24.35
2022-12-26T21:51:29.821Z,21.75
2022-12-26T21:54:16.650Z,21.85
2022-12-26T21:56:43.676Z,17.05
2022-12-26T21:59:29.343Z,21.08
2022-12-26T22:01:56.692Z,20.58
2022-12-26T22:04:23.905Z,21.75
2022-12-26T22:06:52.978Z,22.15
2022-12-26T22:09:19.911Z,23.25
2022-12-26T22:12:06.170Z,24.90
2022-12-26T22:14:34.634Z,21.20
2022-12-26T22:17:01.637Z,23.60
2022-12-26T22:19:28.673Z,24.33
2022-12-26T22:21:55.686Z,24.13
2022-12-26T22:24:22.652Z,24.63
2022-12-26T22:26:49.843Z,19.17
2022-12-26T22:29:17.009Z,21.70
2022-12-26T22:31:44.089Z,20.73
2022-12-26T22:34:13.632Z,18.20
2022-12-26T22:36:41.359Z,21.30
2022-12-26T22:39:10.043Z,18.42
2022-12-26T22:41:37.641Z,19.65
2022-12-26T22:44:04.799Z,20.08
2022-12-26T22:46:31.770Z,19.13
2022-12-26T22:48:58.728Z,21.90
2022-12-26T22:51:26.411Z,21.83
2022-12-26T22:53:54.945Z,23.67
2022-12-26T22:56:21.838Z,20.13
2022-12-26T22:58:53.256Z,23.35
2022-12-26T23:01:20.749Z,27.58
2022-12-26T23:03:48.125Z,22.25
2022-12-26T23:06:20.711Z,24.73
2022-12-26T23:08:49.042Z,28.02
2022-12-26T23:11:16.461Z,29.23
2022-12-26T23:13:44.757Z,20.67
2022-12-26T23:16:27.239Z,24.33
2022-12-26T23:19:18.690Z,26.48
2022-12-26T23:21:50.520Z,22.52
2022-12-26T23:24:19.349Z,22.05
2022-12-26T23:26:50.350Z,21.13
2022-12-26T23:29:38.255Z,21.05
2022-12-26T23:32:07.292Z,19.30
2022-12-26T23:34:34.606Z,17.90
2022-12-26T23:37:02.236Z,16.67
2022-12-26T23:39:29.791Z,15.02
2022-12-26T23:41:56.777Z,16.48
2022-12-26T23:44:23.668Z,15.77
2022-12-26T23:46:50.702Z,16.55
2022-12-26T23:49:17.707Z,14.60
2022-12-26T23:51:44.725Z,13.98
2022-12-26T23:54:11.663Z,14.48
2022-12-26T23:56:38.667Z,14.57
2022-12-26T23:59:06.006Z,14.27
